Time;durP1;ratioP1;P1;durP2;ratioP2;P2;SDS_P1;SDS_P2;PMS_P1;PMS_P2;Temp;Humidity;BMP_temperature;BMP_pressure;BME280_temperature;BME280_humidity;BME280_pressure;Samples;Min_cycle;Max_cycle;Signal;HPM_P1;HPM_P2
2021/09/08 00:02:24;;;;;;;13.73;10.07;;;16.00;1.00;;;;;;5052136;28;20267;-62
2021/09/08 00:04:51;;;;;;;15.13;9.77;;;16.00;1.00;;;;;;5052067;28;20226;-62
2021/09/08 00:07:17;;;;;;;13.47;9.33;;;16.00;1.00;;;;;;5051908;28;20621;-62
2021/09/08 00:09:44;;;;;;;15.73;9.47;;;16.00;1.00;;;;;;5051914;28;20209;-62
2021/09/08 00:12:11;;;;;;;16.50;9.87;;;16.00;1.00;;;;;;5051751;28;20220;-63
2021/09/08 00:14:37;;;;;;;14.40;10.37;;;16.00;1.00;;;;;;5051350;28;20276;-62
2021/09/08 00:17:04;;;;;;;15.63;9.90;;;16.00;1.00;;;;;;5051818;28;20212;-63
2021/09/08 00:19:32;;;;;;;13.53;9.90;;;16.00;1.00;;;;;;5051853;28;20339;-63
2021/09/08 00:21:59;;;;;;;15.77;9.57;;;16.00;1.00;;;;;;5051847;28;20209;-62
2021/09/08 00:24:25;;;;;;;12.70;9.60;;;15.90;1.00;;;;;;5051771;28;20261;-63
2021/09/08 00:26:52;;;;;;;15.93;9.80;;;15.90;1.00;;;;;;5051724;28;20728;-63
2021/09/08 00:29:18;;;;;;;13.30;9.60;;;15.90;1.00;;;;;;5051558;28;20206;-63
2021/09/08 00:31:45;;;;;;;15.13;9.97;;;15.90;1.00;;;;;;5051659;28;20220;-63
2021/09/08 00:34:12;;;;;;;14.10;10.17;;;15.90;1.00;;;;;;5051322;28;20230;-62
2021/09/08 00:36:40;;;;;;;14.00;9.60;;;15.80;1.00;;;;;;5051528;28;20228;-63
2021/09/08 00:39:07;;;;;;;15.23;9.90;;;15.80;1.00;;;;;;5051426;28;20206;-62
2021/09/08 00:41:34;;;;;;;13.57;9.77;;;15.80;1.00;;;;;;5051303;28;20732;-63
2021/09/08 00:44:09;;;;;;;15.00;9.63;;;15.80;1.00;;;;;;5051433;28;20230;-63
2021/09/08 00:46:36;;;;;;;13.70;9.50;;;15.80;1.00;;;;;;5051771;28;20201;-63
2021/09/08 00:49:02;;;;;;;14.63;10.30;;;15.70;1.00;;;;;;5051247;28;20617;-63
2021/09/08 00:51:29;;;;;;;13.83;10.07;;;15.70;18.10;;;;;;5051535;28;20679;-63
2021/09/08 00:53:58;;;;;;;15.07;10.77;;;15.70;52.00;;;;;;5054103;28;20237;-63
2021/09/08 00:56:26;;;;;;;13.90;9.83;;;15.60;98.50;;;;;;5055328;28;20284;-63
2021/09/08 00:58:52;;;;;;;14.87;10.40;;;15.60;99.90;;;;;;5055156;28;20622;-63
2021/09/08 01:01:19;;;;;;;13.77;9.20;;;15.60;99.90;;;;;;5054735;28;20210;-63
2021/09/08 01:03:46;;;;;;;15.20;10.27;;;15.60;99.90;;;;;;5054798;28;20229;-63
2021/09/08 01:06:13;;;;;;;14.10;10.10;;;15.50;99.90;;;;;;5055067;28;20256;-62
2021/09/08 01:08:39;;;;;;;17.50;10.80;;;15.50;99.90;;;;;;5054862;28;20209;-63
2021/09/08 01:11:08;;;;;;;13.97;9.87;;;15.40;99.90;;;;;;5054985;28;20267;-63
2021/09/08 01:13:35;;;;;;;14.97;10.17;;;15.30;1.00;;;;;;5054828;28;20287;-62
2021/09/08 01:16:05;;;;;;;16.40;10.20;;;15.30;99.90;;;;;;5054798;28;20225;-63
2021/09/08 01:18:32;;;;;;;12.80;9.87;;;15.30;99.90;;;;;;5054793;28;20213;-63
2021/09/08 01:20:59;;;;;;;14.77;10.63;;;15.30;99.90;;;;;;5054540;28;20201;-63
2021/09/08 01:23:27;;;;;;;16.20;10.27;;;15.20;1.00;;;;;;5054298;28;20644;-62
2021/09/08 01:25:53;;;;;;;16.70;10.97;;;15.20;1.00;;;;;;5054650;28;20205;-63
2021/09/08 01:28:20;;;;;;;13.93;10.00;;;15.20;1.00;;;;;;5054685;28;20626;-62
2021/09/08 01:30:47;;;;;;;16.90;11.10;;;15.10;1.00;;;;;;5054578;28;20611;-63
2021/09/08 01:33:14;;;;;;;16.50;10.57;;;15.10;46.00;;;;;;5054406;28;20233;-62
2021/09/08 01:35:42;;;;;;;14.73;10.30;;;15.10;58.00;;;;;;5054068;28;20624;-62
2021/09/08 01:38:08;;;;;;;19.33;10.77;;;15.00;93.80;;;;;;5054316;28;20209;-62
2021/09/08 01:40:36;;;;;;;17.80;11.37;;;15.00;99.90;;;;;;5054325;28;20201;-63
2021/09/08 01:43:03;;;;;;;15.20;10.67;;;15.00;99.90;;;;;;5054387;28;20232;-63
2021/09/08 01:45:29;;;;;;;15.17;10.87;;;14.90;99.90;;;;;;5054386;28;20213;-62
2021/09/08 01:47:57;;;;;;;16.30;10.90;;;14.90;99.90;;;;;;5054313;28;20633;-62
2021/09/08 01:50:25;;;;;;;16.90;11.13;;;14.80;1.00;;;;;;5053879;28;20209;-63
2021/09/08 01:52:52;;;;;;;19.67;12.23;;;14.80;1.00;;;;;;5054126;28;20205;-63
2021/09/08 01:55:19;;;;;;;15.83;11.70;;;14.80;99.90;;;;;;5053960;28;20221;-63
2021/09/08 01:57:47;;;;;;;22.03;13.43;;;14.80;99.90;;;;;;5054083;28;20238;-63
2021/09/08 02:00:17;;;;;;;17.87;13.10;;;14.70;1.00;;;;;;5054111;28;20205;-63
2021/09/08 02:02:43;;;;;;;18.37;12.60;;;14.70;1.00;;;;;;5053757;28;20739;-63
2021/09/08 02:05:13;;;;;;;19.33;12.33;;;14.70;99.90;;;;;;5052914;28;20222;-63
2021/09/08 02:07:40;;;;;;;18.87;13.03;;;14.70;99.90;;;;;;5053986;28;20262;-63
2021/09/08 02:10:08;;;;;;;22.67;12.57;;;14.60;99.90;;;;;;5053800;28;20206;-63
2021/09/08 02:12:35;;;;;;;18.23;11.63;;;14.60;1.00;;;;;;5053694;28;20259;-63
2021/09/08 02:15:04;;;;;;;18.90;12.50;;;14.60;1.00;;;;;;5053828;28;20234;-63
2021/09/08 02:17:30;;;;;;;17.97;11.57;;;14.60;63.70;;;;;;5053271;28;20201;-63
2021/09/08 02:19:57;;;;;;;15.97;11.93;;;14.60;99.90;;;;;;5053794;28;20210;-63
2021/09/08 02:22:24;;;;;;;21.37;12.47;;;14.60;99.90;;;;;;5053493;28;20670;-63
2021/09/08 02:24:51;;;;;;;16.33;11.60;;;14.60;99.90;;;;;;5053210;28;20233;-63
2021/09/08 02:27:17;;;;;;;19.03;11.43;;;14.60;99.90;;;;;;5053714;28;20263;-63
2021/09/08 02:29:44;;;;;;;18.87;12.27;;;14.60;99.90;;;;;;5053315;28;20621;-63
2021/09/08 02:32:12;;;;;;;17.20;11.87;;;14.50;99.90;;;;;;5053205;28;20213;-63
2021/09/08 02:34:39;;;;;;;17.50;13.13;;;14.40;99.90;;;;;;5053084;28;20671;-63
2021/09/08 02:37:05;;;;;;;18.47;13.40;;;14.40;1.00;;;;;;5053058;28;20767;-63
2021/09/08 02:39:34;;;;;;;16.57;13.00;;;14.30;99.90;;;;;;5053134;28;20209;-63
2021/09/08 02:42:01;;;;;;;17.70;12.10;;;14.20;99.90;;;;;;5053175;28;20248;-63
2021/09/08 02:44:27;;;;;;;19.87;13.47;;;14.10;1.00;;;;;;5052697;28;20303;-63
2021/09/08 02:46:54;;;;;;;20.13;12.83;;;14.10;99.90;;;;;;5052897;28;20734;-63
2021/09/08 02:49:22;;;;;;;18.60;11.83;;;14.00;99.90;;;;;;5053157;28;20205;-63
2021/09/08 02:51:48;;;;;;;17.43;13.63;;;14.00;99.90;;;;;;5053045;28;20208;-63
2021/09/08 02:54:15;;;;;;;20.07;13.97;;;13.90;1.00;;;;;;5052576;28;20225;-62
2021/09/08 02:56:42;;;;;;;18.50;13.47;;;13.90;1.00;;;;;;5052851;28;20232;-63
2021/09/08 02:59:08;;;;;;;18.13;13.93;;;13.90;1.00;;;;;;5052844;28;20235;-63
2021/09/08 03:01:35;;;;;;;23.63;14.30;;;13.90;1.00;;;;;;5052852;28;20270;-63
2021/09/08 03:04:02;;;;;;;19.93;13.80;;;13.90;23.40;;;;;;5052655;28;20233;-63
2021/09/08 03:06:30;;;;;;;17.67;13.03;;;13.90;55.60;;;;;;5052819;28;20202;-63
2021/09/08 03:08:57;;;;;;;22.07;14.10;;;13.90;45.90;;;;;;5052695;28;20255;-63
2021/09/08 03:11:24;;;;;;;22.83;14.53;;;13.90;16.80;;;;;;5052767;28;20212;-63
2021/09/08 03:13:51;;;;;;;25.90;15.53;;;13.90;1.00;;;;;;5052241;28;20225;-63
2021/09/08 03:16:17;;;;;;;24.80;15.23;;;13.90;1.00;;;;;;5051735;28;20225;-63
2021/09/08 03:18:44;;;;;;;22.90;16.23;;;13.90;1.00;;;;;;5052558;28;20241;-62
2021/09/08 03:21:11;;;;;;;24.60;17.00;;;13.90;33.00;;;;;;5052478;28;20205;-63
2021/09/08 03:23:39;;;;;;;27.07;18.07;;;13.90;96.10;;;;;;5052486;28;20279;-63
2021/09/08 03:26:05;;;;;;;25.57;16.63;;;13.90;99.90;;;;;;5052263;28;20201;-63
2021/09/08 03:28:32;;;;;;;26.27;16.97;;;13.90;99.90;;;;;;5052186;28;20212;-62
2021/09/08 03:30:58;;;;;;;24.17;15.93;;;13.90;99.90;;;;;;5052316;28;20239;-62
2021/09/08 03:33:25;;;;;;;25.67;16.37;;;13.90;99.90;;;;;;5052144;28;20270;-63
2021/09/08 03:35:52;;;;;;;27.87;16.83;;;13.90;99.90;;;;;;5052387;28;20228;-63
2021/09/08 03:38:18;;;;;;;22.87;15.73;;;13.90;99.90;;;;;;5052146;28;20212;-63
2021/09/08 03:40:46;;;;;;;23.37;16.33;;;13.90;99.90;;;;;;5052071;28;20235;-63
2021/09/08 03:43:13;;;;;;;23.07;15.10;;;13.90;99.90;;;;;;5052264;28;20228;-63
2021/09/08 03:45:40;;;;;;;22.43;15.17;;;13.80;99.90;;;;;;5052483;28;20204;-63
2021/09/08 03:48:06;;;;;;;25.97;15.33;;;13.90;99.90;;;;;;5051886;28;20670;-62
2021/09/08 03:50:33;;;;;;;25.30;15.43;;;13.80;99.90;;;;;;5052565;28;20205;-62
2021/09/08 03:53:00;;;;;;;21.07;14.37;;;13.80;99.90;;;;;;5051931;28;20210;-62
2021/09/08 03:55:27;;;;;;;22.93;14.83;;;13.90;99.90;;;;;;5051729;28;20246;-62
2021/09/08 03:57:55;;;;;;;18.70;13.93;;;13.90;99.90;;;;;;5052178;28;20208;-63
2021/09/08 04:00:21;;;;;;;21.93;14.57;;;13.90;99.90;;;;;;5050549;28;20205;-62
2021/09/08 04:02:48;;;;;;;22.40;14.70;;;13.80;99.90;;;;;;5067031;28;20208;-63
2021/09/08 04:05:15;;;;;;;23.53;14.57;;;13.80;99.90;;;;;;5071780;28;20649;-63
2021/09/08 04:07:41;;;;;;;20.00;14.07;;;13.80;99.90;;;;;;5071909;28;20215;-63
2021/09/08 04:10:09;;;;;;;19.40;14.07;;;13.80;99.90;;;;;;5071843;28;20216;-63
2021/09/08 04:12:35;;;;;;;22.13;14.83;;;13.80;99.90;;;;;;5072092;28;20610;-63
2021/09/08 04:15:04;;;;;;;24.17;15.60;;;13.70;99.90;;;;;;5071613;28;20233;-63
2021/09/08 04:17:31;;;;;;;52.20;15.50;;;13.70;99.90;;;;;;5071660;28;20769;-63
2021/09/08 04:19:57;;;;;;;26.47;15.30;;;13.60;99.90;;;;;;5071702;28;20289;-63
2021/09/08 04:22:24;;;;;;;22.73;15.33;;;13.60;99.90;;;;;;5071631;28;20208;-63
2021/09/08 04:24:51;;;;;;;21.83;15.43;;;13.60;99.90;;;;;;5071622;28;20235;-63
2021/09/08 04:27:17;;;;;;;22.07;15.10;;;13.60;99.90;;;;;;5072412;28;20752;-63
2021/09/08 04:29:44;;;;;;;19.73;14.97;;;13.60;99.90;;;;;;5075717;28;20215;-62
2021/09/08 04:32:12;;;;;;;25.10;15.63;;;13.60;99.90;;;;;;5075551;28;20207;-63
2021/09/08 04:34:38;;;;;;;20.70;14.33;;;13.60;99.90;;;;;;5075124;28;20231;-63
2021/09/08 04:37:05;;;;;;;21.77;14.93;;;13.60;99.90;;;;;;5075079;28;20281;-63
2021/09/08 04:39:32;;;;;;;22.87;15.87;;;13.60;99.90;;;;;;5075598;28;20257;-63
2021/09/08 04:41:58;;;;;;;22.67;15.53;;;13.60;99.90;;;;;;5075304;28;20216;-63
2021/09/08 04:44:25;;;;;;;22.63;15.27;;;13.60;99.90;;;;;;5075396;28;20235;-63
2021/09/08 04:46:52;;;;;;;20.47;15.20;;;13.60;99.90;;;;;;5075162;28;20624;-63
2021/09/08 04:49:20;;;;;;;20.63;14.77;;;13.60;99.90;;;;;;5075232;28;20208;-63
2021/09/08 04:51:47;;;;;;;20.47;15.00;;;13.60;99.90;;;;;;5074864;28;20257;-62
2021/09/08 04:54:14;;;;;;;21.63;15.00;;;13.50;99.90;;;;;;5075037;28;20228;-63
2021/09/08 04:56:41;;;;;;;22.67;14.90;;;13.50;99.90;;;;;;5075062;28;20316;-63
2021/09/08 04:59:07;;;;;;;20.27;15.03;;;13.50;99.90;;;;;;5075303;28;20262;-63
2021/09/08 05:01:34;;;;;;;23.13;14.67;;;13.50;99.90;;;;;;5074893;28;20208;-62
2021/09/08 05:04:01;;;;;;;21.33;14.77;;;13.50;99.90;;;;;;5074466;28;20347;-62
2021/09/08 05:06:29;;;;;;;22.67;15.40;;;13.50;99.90;;;;;;5074759;28;20205;-62
2021/09/08 05:08:56;;;;;;;25.07;15.63;;;13.50;99.90;;;;;;5075093;28;20257;-62
2021/09/08 05:11:23;;;;;;;23.37;15.50;;;13.40;99.90;;;;;;5075015;28;20311;-62
2021/09/08 05:13:49;;;;;;;23.83;15.33;;;13.40;99.90;;;;;;5074481;28;20275;-62
2021/09/08 05:16:16;;;;;;;27.17;15.97;;;13.40;99.90;;;;;;5074828;28;20228;-62
2021/09/08 05:18:43;;;;;;;21.03;14.90;;;13.30;99.90;;;;;;5074658;28;20211;-61
2021/09/08 05:21:09;;;;;;;22.60;15.70;;;13.40;99.90;;;;;;5074932;28;20216;-61
2021/09/08 05:23:38;;;;;;;21.67;15.63;;;13.40;99.90;;;;;;5074202;28;20713;-61
2021/09/08 05:26:06;;;;;;;26.90;14.77;;;13.50;99.90;;;;;;5074692;28;20209;-62
2021/09/08 05:28:33;;;;;;;22.87;16.07;;;13.60;99.90;;;;;;5074468;28;20680;-62
2021/09/08 05:30:59;;;;;;;23.40;15.00;;;13.60;99.90;;;;;;5074798;28;20209;-61
2021/09/08 05:33:26;;;;;;;23.33;16.20;;;13.50;99.90;;;;;;5073862;28;20319;-61
2021/09/08 05:35:53;;;;;;;23.50;16.63;;;13.50;99.90;;;;;;5074550;28;20208;-61
2021/09/08 05:38:20;;;;;;;23.60;16.50;;;13.50;1.00;;;;;;5074363;28;20274;-62
2021/09/08 05:40:48;;;;;;;26.73;15.27;;;13.60;1.00;;;;;;5073388;28;20707;-62
2021/09/08 05:43:15;;;;;;;23.07;15.07;;;13.60;1.00;;;;;;5074346;28;20284;-62
2021/09/08 05:45:43;;;;;;;21.47;15.10;;;13.60;1.00;;;;;;5074070;28;20208;-61
2021/09/08 05:48:09;;;;;;;21.77;14.93;;;13.70;1.00;;;;;;5074665;28;20566;-61
2021/09/08 05:50:36;;;;;;;27.50;15.57;;;13.70;1.00;;;;;;5074345;28;20205;-61
2021/09/08 05:53:03;;;;;;;23.87;15.87;;;13.80;1.00;;;;;;5074515;28;20281;-63
2021/09/08 05:55:30;;;;;;;23.03;15.83;;;13.70;1.00;;;;;;5073924;28;20299;-63
2021/09/08 05:57:58;;;;;;;27.07;15.83;;;13.80;1.00;;;;;;5073894;28;20224;-63
2021/09/08 06:00:25;;;;;;;21.73;16.20;;;13.80;1.00;;;;;;5073796;28;20204;-63
2021/09/08 06:02:52;;;;;;;23.17;16.13;;;13.80;1.00;;;;;;5074035;28;20691;-63
2021/09/08 06:05:18;;;;;;;25.10;16.10;;;13.90;1.00;;;;;;5074059;28;20257;-63
2021/09/08 06:07:45;;;;;;;24.53;16.00;;;13.90;1.00;;;;;;5074147;28;20247;-60
2021/09/08 06:10:17;;;;;;;23.83;15.47;;;13.90;1.00;;;;;;5074033;28;20209;-60
2021/09/08 06:12:44;;;;;;;28.90;18.33;;;14.10;1.00;;;;;;5073915;28;20205;-60
2021/09/08 06:15:12;;;;;;;26.90;18.73;;;14.10;1.00;;;;;;5073515;28;20224;-61
2021/09/08 06:17:39;;;;;;;26.00;16.23;;;14.20;1.00;;;;;;5073744;28;20221;-61
2021/09/08 06:20:07;;;;;;;26.70;16.70;;;14.30;1.00;;;;;;5073734;28;20234;-61
2021/09/08 06:22:34;;;;;;;24.60;15.63;;;14.40;1.00;;;;;;5073510;28;20209;-61
2021/09/08 06:25:01;;;;;;;25.80;16.00;;;14.40;1.00;;;;;;5073139;28;20283;-61
2021/09/08 06:27:28;;;;;;;27.07;14.83;;;14.50;1.00;;;;;;5073188;28;20662;-61
2021/09/08 06:29:54;;;;;;;18.83;14.07;;;14.60;1.00;;;;;;5073621;28;20213;-61
2021/09/08 06:32:23;;;;;;;19.13;14.83;;;14.80;1.00;;;;;;5073553;28;20262;-63
2021/09/08 06:34:49;;;;;;;21.93;13.03;;;14.90;99.90;;;;;;5073200;28;20229;-62
2021/09/08 06:37:16;;;;;;;20.37;13.20;;;15.00;99.90;;;;;;5073081;28;20228;-63
2021/09/08 06:39:44;;;;;;;16.53;12.43;;;15.10;99.90;;;;;;5073211;28;20212;-62
2021/09/08 06:42:10;;;;;;;14.90;11.47;;;15.30;99.90;;;;;;5073013;28;20629;-64
2021/09/08 06:44:37;;;;;;;16.17;11.17;;;15.40;1.00;;;;;;5073197;28;20224;-62
2021/09/08 06:47:04;;;;;;;18.47;12.33;;;15.60;99.90;;;;;;5072964;28;20666;-63
2021/09/08 06:49:32;;;;;;;16.77;11.17;;;15.70;1.00;;;;;;5073134;28;20258;-62
2021/09/08 06:51:59;;;;;;;15.53;11.73;;;15.90;99.90;;;;;;5072942;28;20736;-62
2021/09/08 06:54:25;;;;;;;15.27;10.90;;;16.00;99.90;;;;;;5072410;28;20250;-62
2021/09/08 06:56:52;;;;;;;15.97;10.93;;;16.10;97.60;;;;;;5072727;28;20229;-63
2021/09/08 06:59:18;;;;;;;14.17;10.77;;;16.30;1.00;;;;;;5073087;28;20205;-62
2021/09/08 07:01:45;;;;;;;17.07;10.67;;;16.40;1.00;;;;;;5072993;28;20266;-63
2021/09/08 07:04:12;;;;;;;13.27;10.73;;;16.60;1.00;;;;;;5072282;28;20274;-63
2021/09/08 07:06:40;;;;;;;14.80;11.13;;;16.70;1.00;;;;;;5072996;28;20227;-63
2021/09/08 07:09:09;;;;;;;16.33;11.30;;;16.80;99.90;;;;;;5072689;28;20624;-63
2021/09/08 07:11:36;;;;;;;14.97;11.30;;;16.90;1.00;;;;;;5072906;28;20287;-63
2021/09/08 07:14:03;;;;;;;15.03;10.70;;;17.10;99.90;;;;;;5072393;28;20240;-63
2021/09/08 07:16:29;;;;;;;17.47;11.43;;;17.20;51.40;;;;;;5072690;28;20684;-63
2021/09/08 07:18:56;;;;;;;17.90;11.03;;;17.40;99.90;;;;;;5072598;28;20665;-63
2021/09/08 07:21:23;;;;;;;16.10;11.53;;;17.50;29.00;;;;;;5072745;28;20231;-63
2021/09/08 07:23:51;;;;;;;14.67;11.20;;;17.60;1.00;;;;;;5071944;28;20290;-63
2021/09/08 07:26:18;;;;;;;18.37;12.40;;;17.70;1.00;;;;;;5072281;28;20824;-63
2021/09/08 07:28:44;;;;;;;14.37;10.60;;;17.90;1.00;;;;;;5072369;28;20205;-63
2021/09/08 07:31:11;;;;;;;15.07;10.90;;;18.10;1.00;;;;;;5072443;28;20258;-63
2021/09/08 07:33:38;;;;;;;14.83;10.43;;;18.30;21.60;;;;;;5071808;28;20708;-63
2021/09/08 07:36:05;;;;;;;15.60;10.47;;;18.40;1.00;;;;;;5072012;28;20673;-63
2021/09/08 07:38:32;;;;;;;13.33;10.23;;;18.60;1.00;;;;;;5072160;28;20282;-64
2021/09/08 07:41:00;;;;;;;15.37;10.40;;;18.70;99.90;;;;;;5072436;28;20611;-63
2021/09/08 07:43:27;;;;;;;14.63;10.60;;;18.90;99.90;;;;;;5072234;28;20660;-63
2021/09/08 07:45:54;;;;;;;14.87;10.83;;;19.00;99.90;;;;;;5072570;28;20262;-63
2021/09/08 07:48:21;;;;;;;14.43;10.67;;;19.20;99.90;;;;;;5072169;28;20201;-63
2021/09/08 07:50:48;;;;;;;18.33;10.70;;;19.30;99.90;;;;;;5072051;28;20217;-63
2021/09/08 07:53:14;;;;;;;15.67;10.50;;;19.40;99.90;;;;;;5072077;28;20767;-63
2021/09/08 07:55:41;;;;;;;13.10;9.47;;;19.60;99.90;;;;;;5071615;28;20248;-63
2021/09/08 07:58:09;;;;;;;16.30;9.97;;;19.60;70.40;;;;;;5072195;28;20648;-63
2021/09/08 08:00:36;;;;;;;13.93;9.77;;;19.80;1.00;;;;;;5071936;28;20609;-63
2021/09/08 08:03:04;;;;;;;14.70;10.20;;;19.90;4.20;;;;;;5071531;28;20208;-63
2021/09/08 08:05:33;;;;;;;12.87;10.30;;;20.00;1.00;;;;;;5071333;28;20251;-63
2021/09/08 08:08:00;;;;;;;14.50;10.00;;;20.20;1.00;;;;;;5072110;28;20200;-63
2021/09/08 08:10:27;;;;;;;14.93;10.60;;;20.30;1.00;;;;;;5072290;28;20208;-63
2021/09/08 08:12:53;;;;;;;14.43;9.63;;;20.40;1.00;;;;;;5071967;28;20255;-64
2021/09/08 08:15:22;;;;;;;15.23;10.27;;;20.50;1.00;;;;;;5071658;28;20205;-63
2021/09/08 08:17:49;;;;;;;13.27;10.20;;;20.60;1.00;;;;;;5071552;28;20221;-63
2021/09/08 08:20:18;;;;;;;15.43;9.70;;;20.80;1.00;;;;;;5071750;28;20216;-63
2021/09/08 08:22:45;;;;;;;16.33;10.77;;;20.90;1.00;;;;;;5071897;28;20212;-63
2021/09/08 08:25:14;;;;;;;12.13;9.93;;;21.00;1.00;;;;;;5071177;28;20721;-63
2021/09/08 08:27:41;;;;;;;13.93;9.93;;;21.10;1.00;;;;;;5071603;28;20735;-63
2021/09/08 08:30:11;;;;;;;13.07;10.73;;;21.20;1.00;;;;;;5071614;28;20255;-63
2021/09/08 08:32:39;;;;;;;13.13;9.73;;;21.40;1.00;;;;;;5071230;28;20209;-63
2021/09/08 08:35:07;;;;;;;13.07;10.20;;;21.50;1.00;;;;;;5071282;28;20256;-63
2021/09/08 08:37:33;;;;;;;13.20;9.33;;;21.60;1.00;;;;;;5071413;28;20228;-63
2021/09/08 08:40:02;;;;;;;14.87;10.60;;;21.60;1.00;;;;;;5071397;28;20719;-64
2021/09/08 08:42:30;;;;;;;13.23;10.00;;;21.80;1.00;;;;;;5071411;28;20211;-63
2021/09/08 08:44:58;;;;;;;17.43;10.60;;;21.90;1.00;;;;;;5070919;28;20225;-63
2021/09/08 08:47:25;;;;;;;11.13;9.37;;;22.00;1.00;;;;;;5071453;28;20262;-63
2021/09/08 08:49:53;;;;;;;13.70;9.87;;;22.10;1.00;;;;;;5071669;28;20633;-63
2021/09/08 08:52:21;;;;;;;18.57;9.93;;;22.20;1.00;;;;;;5071449;28;20678;-63
2021/09/08 08:54:48;;;;;;;12.87;9.63;;;22.40;1.00;;;;;;5070762;28;20729;-63
2021/09/08 08:57:16;;;;;;;14.40;9.73;;;22.50;1.00;;;;;;5071203;28;20270;-63
2021/09/08 08:59:45;;;;;;;12.73;9.53;;;22.60;1.00;;;;;;5071136;28;20299;-64
2021/09/08 09:02:23;;;;;;;16.10;12.93;;;22.70;1.00;;;;;;5071281;28;20669;-63
2021/09/08 09:04:53;;;;;;;13.03;9.50;;;22.80;1.00;;;;;;5070881;28;20225;-63
2021/09/08 09:07:24;;;;;;;17.43;12.53;;;22.90;1.00;;;;;;5071328;28;20259;-64
2021/09/08 09:09:52;;;;;;;14.03;9.87;;;23.00;1.00;;;;;;5071056;28;20205;-64
2021/09/08 09:12:19;;;;;;;13.53;9.70;;;23.10;1.00;;;;;;5071415;28;20209;-63
2021/09/08 09:14:49;;;;;;;12.60;8.87;;;23.10;1.00;;;;;;5071900;28;20623;-64
2021/09/08 09:17:18;;;;;;;12.97;9.53;;;23.20;1.00;;;;;;5075120;28;20221;-64
2021/09/08 09:19:48;;;;;;;13.37;9.10;;;23.30;1.00;;;;;;5074824;28;20292;-64
2021/09/08 09:22:18;;;;;;;12.07;9.13;;;23.40;1.00;;;;;;5074666;28;20204;-64
2021/09/08 09:24:46;;;;;;;14.07;9.17;;;23.50;1.00;;;;;;5074590;28;20247;-64
2021/09/08 09:27:13;;;;;;;12.20;9.30;;;23.60;1.00;;;;;;5074756;28;20300;-64
2021/09/08 09:29:43;;;;;;;13.50;9.63;;;23.70;1.00;;;;;;5074421;28;20243;-64
2021/09/08 09:32:11;;;;;;;11.70;8.97;;;23.80;1.00;;;;;;5074554;28;20209;-64
2021/09/08 09:34:39;;;;;;;13.40;9.63;;;23.90;1.00;;;;;;5073960;28;20659;-64
2021/09/08 09:37:07;;;;;;;11.73;9.33;;;24.00;1.00;;;;;;5074051;28;20225;-64
2021/09/08 09:39:37;;;;;;;14.30;9.53;;;24.10;1.00;;;;;;5074512;28;20209;-64
2021/09/08 09:42:08;;;;;;;13.40;9.47;;;24.20;1.00;;;;;;5074364;28;20221;-64
2021/09/08 09:44:35;;;;;;;15.50;8.83;;;24.20;1.00;;;;;;5073939;28;20231;-61
2021/09/08 09:47:02;;;;;;;11.27;8.93;;;24.30;1.00;;;;;;5074180;28;20205;-61
2021/09/08 09:49:31;;;;;;;13.37;9.20;;;24.30;1.00;;;;;;5074095;28;20296;-61
2021/09/08 09:51:58;;;;;;;12.70;9.80;;;24.40;99.90;;;;;;5074281;28;20559;-61
2021/09/08 09:54:26;;;;;;;12.30;8.53;;;24.50;99.90;;;;;;5073769;28;20287;-61
2021/09/08 09:56:55;;;;;;;11.13;8.50;;;24.60;99.90;;;;;;5074058;28;20205;-64
2021/09/08 09:59:21;;;;;;;15.23;8.77;;;24.60;99.90;;;;;;5074003;28;20648;-64
2021/09/08 10:01:48;;;;;;;10.13;8.83;;;24.70;99.90;;;;;;5073851;28;20201;-64
2021/09/08 10:04:16;;;;;;;10.43;8.27;;;24.70;99.90;;;;;;5073333;28;20221;-64
2021/09/08 10:06:44;;;;;;;13.90;9.33;;;24.80;99.90;;;;;;5073956;28;20209;-64
2021/09/08 10:09:15;;;;;;;10.57;8.50;;;24.90;99.90;;;;;;5073864;28;20208;-64
2021/09/08 10:11:45;;;;;;;10.53;8.70;;;24.80;99.90;;;;;;5073734;28;20209;-64
2021/09/08 10:14:16;;;;;;;10.67;8.93;;;24.90;99.90;;;;;;5073369;28;20725;-64
2021/09/08 10:16:45;;;;;;;9.77;7.80;;;25.00;99.90;;;;;;5073413;28;20201;-64
2021/09/08 10:19:12;;;;;;;14.57;8.50;;;25.00;99.90;;;;;;5073602;28;20235;-64
2021/09/08 10:21:43;;;;;;;9.70;8.70;;;25.10;99.90;;;;;;5073659;28;20201;-64
2021/09/08 10:24:11;;;;;;;10.57;8.40;;;25.10;99.90;;;;;;5072935;28;20224;-64
2021/09/08 10:26:38;;;;;;;10.17;8.33;;;25.20;99.90;;;;;;5073200;28;20248;-64
2021/09/08 10:29:06;;;;;;;14.13;8.33;;;25.20;99.90;;;;;;5073370;28;20247;-64
2021/09/08 10:31:36;;;;;;;13.73;8.80;;;25.20;99.90;;;;;;5073630;28;20213;-64
2021/09/08 10:34:04;;;;;;;9.37;7.50;;;25.30;99.90;;;;;;5073066;28;20224;-64
2021/09/08 10:36:32;;;;;;;10.47;8.30;;;25.40;99.90;;;;;;5073191;28;20678;-64
2021/09/08 10:39:07;;;;;;;14.90;8.10;;;25.30;99.90;;;;;;5073313;28;20266;-64
2021/09/08 10:41:43;;;;;;;12.27;8.20;;;25.40;99.90;;;;;;5073321;28;20204;-64
2021/09/08 10:44:10;;;;;;;13.47;8.00;;;25.50;99.90;;;;;;5072558;28;20225;-64
2021/09/08 10:46:55;;;;;;;9.37;7.60;;;25.60;99.90;;;;;;5073356;28;20263;-64
2021/09/08 10:49:48;;;;;;;10.90;7.83;;;25.70;99.90;;;;;;5073115;28;20201;-64
2021/09/08 10:52:35;;;;;;;8.97;7.47;;;25.80;99.90;;;;;;5072834;28;20217;-64
2021/09/08 10:55:24;;;;;;;10.80;8.13;;;25.90;99.90;;;;;;5072322;28;20229;-64
2021/09/08 10:58:00;;;;;;;8.07;7.27;;;26.00;99.90;;;;;;5072626;28;20221;-64
2021/09/08 11:00:36;;;;;;;9.30;7.97;;;26.00;99.90;;;;;;5072725;28;20205;-63
2021/09/08 11:03:23;;;;;;;8.77;7.80;;;26.10;99.90;;;;;;5072832;28;20204;-64
2021/09/08 11:05:51;;;;;;;12.90;10.70;;;26.10;99.90;;;;;;5072563;28;20200;-64
2021/09/08 11:08:23;;;;;;;8.87;7.07;;;26.00;99.90;;;;;;5072600;28;20730;-64
2021/09/08 11:10:50;;;;;;;11.33;7.20;;;26.00;99.90;;;;;;5072339;28;20205;-64
2021/09/08 11:13:26;;;;;;;9.43;7.97;;;26.00;99.90;;;;;;5072494;28;20689;-64
2021/09/08 11:15:53;;;;;;;13.67;7.23;;;26.00;99.90;;;;;;5072682;28;20686;-64
2021/09/08 11:18:21;;;;;;;9.07;7.00;;;26.00;99.90;;;;;;5072408;28;20229;-64
2021/09/08 11:21:00;;;;;;;9.33;7.00;;;26.10;99.90;;;;;;5072525;28;20649;-64
2021/09/08 11:23:27;;;;;;;12.20;7.40;;;26.10;99.90;;;;;;5071974;28;20599;-64
2021/09/08 11:25:53;;;;;;;8.13;6.93;;;26.20;99.90;;;;;;5072428;28;20265;-64
2021/09/08 11:28:20;;;;;;;11.53;7.20;;;26.40;99.90;;;;;;5072601;28;20230;-64
2021/09/08 11:30:46;;;;;;;7.80;7.00;;;26.40;99.90;;;;;;5072504;28;20205;-64
2021/09/08 11:33:14;;;;;;;7.87;6.50;;;26.50;99.90;;;;;;5072181;28;20225;-64
2021/09/08 11:35:44;;;;;;;10.07;6.80;;;26.50;99.90;;;;;;5071669;28;20209;-64
2021/09/08 11:38:15;;;;;;;9.73;6.50;;;26.50;99.90;;;;;;5071575;28;20282;-64
2021/09/08 11:40:44;;;;;;;8.97;6.57;;;26.60;99.90;;;;;;5072396;28;20216;-64
2021/09/08 11:43:11;;;;;;;8.40;6.60;;;26.60;99.90;;;;;;5072264;28;20229;-64
2021/09/08 11:45:38;;;;;;;8.83;6.80;;;26.60;99.90;;;;;;5071975;28;20209;-64
2021/09/08 11:48:06;;;;;;;8.77;7.03;;;26.60;99.90;;;;;;5072126;28;20205;-61
2021/09/08 11:50:33;;;;;;;8.60;6.63;;;26.60;99.90;;;;;;5071932;28;20200;-61
2021/09/08 11:53:02;;;;;;;9.33;6.63;;;26.60;99.90;;;;;;5072063;28;20208;-63
2021/09/08 11:55:33;;;;;;;8.77;6.00;;;26.70;99.90;;;;;;5071785;28;20205;-64
2021/09/08 11:58:20;;;;;;;10.47;6.53;;;26.60;99.90;;;;;;5071988;28;20205;-64
2021/09/08 12:01:00;;;;;;;8.57;6.43;;;26.70;99.90;;;;;;5072033;28;20204;-64
2021/09/08 12:03:30;;;;;;;7.53;6.17;;;26.70;99.90;;;;;;5071617;28;20289;-63
2021/09/08 12:06:08;;;;;;;8.20;6.53;;;26.70;99.90;;;;;;5071871;28;20253;-64
2021/09/08 12:08:37;;;;;;;8.43;5.70;;;26.70;99.90;;;;;;5071875;28;20236;-63
2021/09/08 12:11:04;;;;;;;7.33;5.83;;;26.80;99.90;;;;;;5071845;28;20208;-64
2021/09/08 12:13:33;;;;;;;6.50;5.57;;;26.70;99.90;;;;;;5071405;28;20233;-63
2021/09/08 12:16:00;;;;;;;8.97;6.10;;;26.70;99.90;;;;;;5072034;28;20232;-63
2021/09/08 12:18:27;;;;;;;7.20;5.87;;;26.80;99.90;;;;;;5071724;28;20217;-64
2021/09/08 12:20:54;;;;;;;9.77;5.90;;;26.70;99.90;;;;;;5071754;28;20689;-64
2021/09/08 12:23:29;;;;;;;8.57;6.50;;;26.70;99.90;;;;;;5071624;28;20225;-63
2021/09/08 12:26:11;;;;;;;9.17;6.10;;;26.80;99.90;;;;;;5071502;28;20204;-63
2021/09/08 12:28:58;;;;;;;9.23;6.50;;;27.00;99.90;;;;;;5071783;28;20209;-64
2021/09/08 12:31:26;;;;;;;6.83;5.80;;;26.90;99.90;;;;;;5071875;28;20204;-63
2021/09/08 12:33:54;;;;;;;7.13;6.43;;;27.10;99.90;;;;;;5071101;28;20225;-63
2021/09/08 12:36:21;;;;;;;7.70;6.60;;;26.90;99.90;;;;;;5071401;28;20669;-64
2021/09/08 12:38:50;;;;;;;8.47;6.57;;;27.00;99.90;;;;;;5071861;28;20229;-63
2021/09/08 12:41:19;;;;;;;7.20;5.80;;;27.10;99.90;;;;;;5071812;28;20204;-64